createdAt,value
2023-12-05T00:03:45.442Z,0.38
2023-12-05T00:08:46.010Z,0.42
2023-12-05T00:13:43.600Z,0.43
2023-12-05T00:18:43.194Z,0.47
2023-12-05T00:23:43.071Z,0.47
2023-12-05T00:28:43.264Z,0.48
2023-12-05T00:33:43.101Z,0.51
2023-12-05T00:38:43.053Z,0.52
2023-12-05T00:43:43.342Z,0.48
2023-12-05T00:48:43.050Z,0.48
2023-12-05T00:53:43.999Z,0.6
2023-12-05T00:58:23.435Z,0.72
2023-12-05T01:03:23.330Z,0.81
2023-12-05T01:08:23.284Z,0.88
2023-12-05T01:13:23.740Z,0.93
2023-12-05T01:18:23.754Z,1.01
2023-12-05T01:23:23.809Z,1.07
2023-12-05T01:28:23.534Z,1.04
2023-12-05T01:33:23.587Z,1.01
2023-12-05T01:38:22.232Z,0.95
2023-12-05T01:43:21.621Z,0.97
2023-12-05T01:48:21.658Z,0.89
2023-12-05T01:53:21.858Z,0.89
2023-12-05T01:58:21.633Z,0.95
2023-12-05T02:04:44.875Z,0.94
2023-12-05T02:09:44.681Z,0.95
2023-12-05T02:14:43.185Z,0.85
2023-12-05T02:19:43.602Z,0.83
2023-12-05T02:24:43.257Z,0.87
2023-12-05T02:29:43.569Z,1.03
2023-12-05T02:34:42.897Z,1.16
2023-12-05T02:39:42.826Z,1.03
2023-12-05T02:44:43.176Z,1
2023-12-05T02:49:43.112Z,1.16
2023-12-05T02:54:43.105Z,1.38
2023-12-05T02:58:51.050Z,1.48
2023-12-05T03:03:50.545Z,1.68
2023-12-05T03:08:50.409Z,1.96
2023-12-05T03:18:50.506Z,2.44
2023-12-05T03:23:50.998Z,2.57
2023-12-05T03:28:50.870Z,2.81
2023-12-05T03:33:51.036Z,3.09
2023-12-05T03:38:48.591Z,3.37
2023-12-05T03:43:48.120Z,3.63
2023-12-05T03:48:48.092Z,3.75
2023-12-05T03:53:48.306Z,3.83
2023-12-05T03:58:48.106Z,3.9
2023-12-05T04:03:48.278Z,4.01
2023-12-05T04:08:48.629Z,4.02
2023-12-05T04:13:48.620Z,4.06
2023-12-05T04:18:49.729Z,4.12
2023-12-05T04:23:45.917Z,4.19
2023-12-05T04:28:45.584Z,4.25
2023-12-05T04:33:45.594Z,4.33
2023-12-05T04:38:45.900Z,4.42
2023-12-05T04:43:45.816Z,4.6
2023-12-05T04:48:46.220Z,4.86
2023-12-05T04:53:45.856Z,5.06
2023-12-05T04:58:45.871Z,5.23
2023-12-05T05:05:20.384Z,5.35
2023-12-05T05:10:20.675Z,5.48
2023-12-05T05:15:20.661Z,5.57
2023-12-05T05:20:21.040Z,5.63
2023-12-05T05:25:21.143Z,5.77
2023-12-05T05:30:19.517Z,5.85
2023-12-05T05:35:21.732Z,6.07
2023-12-05T05:40:19.651Z,6.27
2023-12-05T05:45:20.099Z,6.3
2023-12-05T05:50:20.964Z,6.36
2023-12-05T05:55:20.762Z,6.42
2023-12-05T05:59:44.067Z,6.38
2023-12-05T06:04:41.420Z,6.36
2023-12-05T06:09:40.846Z,6.4
2023-12-05T06:14:40.686Z,6.46
2023-12-05T06:19:41.068Z,6.5
2023-12-05T06:24:40.770Z,6.5
2023-12-05T06:29:40.887Z,6.53
2023-12-05T06:34:41.338Z,6.55
2023-12-05T06:39:41.939Z,6.6
2023-12-05T06:44:39.268Z,6.56
2023-12-05T06:49:38.719Z,6.58
2023-12-05T06:54:38.656Z,6.62
2023-12-05T06:59:20.932Z,6.66
2023-12-05T07:04:20.748Z,6.64
2023-12-05T07:09:20.985Z,6.7
2023-12-05T07:14:20.872Z,6.76
2023-12-05T07:19:21.363Z,6.75
2023-12-05T07:24:19.380Z,6.74
2023-12-05T07:29:19.409Z,6.8
2023-12-05T07:34:19.718Z,6.81
2023-12-05T07:39:19.573Z,6.81
2023-12-05T07:44:20.293Z,6.88
2023-12-05T07:49:21.412Z,6.94
2023-12-05T07:54:06.800Z,6.98
2023-12-05T07:58:50.684Z,6.99
2023-12-05T08:03:50.681Z,6.98
2023-12-05T08:08:51.013Z,6.99
2023-12-05T08:13:50.756Z,7.03
2023-12-05T08:18:50.446Z,7.08
2023-12-05T08:23:50.324Z,7.08
2023-12-05T08:28:51.461Z,7.1
2023-12-05T08:33:47.712Z,7.08
2023-12-05T08:38:47.434Z,7.07
2023-12-05T08:43:47.395Z,7.22
2023-12-05T08:48:47.847Z,7.43
2023-12-05T08:53:47.738Z,7.54
2023-12-05T08:58:47.971Z,7.46
2023-12-05T09:03:47.678Z,7.42
2023-12-05T09:08:47.529Z,7.41
2023-12-05T09:13:46.092Z,7.53
2023-12-05T09:18:45.522Z,7.69
2023-12-05T09:23:45.219Z,7.83
2023-12-05T09:28:45.540Z,7.8
2023-12-05T09:33:45.065Z,7.86
2023-12-05T09:38:44.983Z,7.87
2023-12-05T09:43:45.358Z,7.85
2023-12-05T09:48:45.479Z,7.85
2023-12-05T09:53:45.107Z,7.84
2023-12-05T09:58:42.583Z,7.84
2023-12-05T10:03:43.173Z,7.74
2023-12-05T10:08:43.589Z,7.78
2023-12-05T10:13:43.276Z,7.83
2023-12-05T10:18:43.539Z,7.77
2023-12-05T10:23:42.952Z,7.74
2023-12-05T10:28:42.971Z,7.79
2023-12-05T10:33:41.688Z,7.8
2023-12-05T10:38:41.441Z,7.88
2023-12-05T10:43:40.755Z,7.9
2023-12-05T10:48:41.205Z,7.84
2023-12-05T10:53:40.504Z,7.83
2023-12-05T10:58:40.426Z,7.8
2023-12-05T11:03:40.895Z,7.75
2023-12-05T11:08:40.498Z,7.64
2023-12-05T11:13:40.490Z,7.66
2023-12-05T11:18:37.990Z,7.7
2023-12-05T11:23:37.230Z,7.74
2023-12-05T11:28:37.147Z,7.8
2023-12-05T11:33:37.918Z,7.78
2023-12-05T11:38:37.685Z,7.75
2023-12-05T11:43:37.977Z,7.79
2023-12-05T11:48:37.864Z,7.75
2023-12-05T11:53:37.709Z,7.7
2023-12-05T11:58:35.142Z,7.75
2023-12-05T12:04:56.717Z,7.76
2023-12-05T12:09:57.098Z,7.84
2023-12-05T12:14:56.645Z,7.99
2023-12-05T12:19:56.662Z,8.04
2023-12-05T12:24:57.143Z,8.1
2023-12-05T12:29:57.005Z,8.24
2023-12-05T12:34:59.227Z,8.2
2023-12-05T12:39:54.314Z,8.17
2023-12-05T12:44:53.940Z,7.94
2023-12-05T12:49:53.899Z,7.87
2023-12-05T12:54:54.263Z,7.69
2023-12-05T12:59:16.162Z,7.62
2023-12-05T13:04:16.487Z,7.67
2023-12-05T13:09:16.717Z,7.64
2023-12-05T13:14:17.712Z,7.53
2023-12-05T13:19:24.889Z,7.54
2023-12-05T13:24:25.270Z,7.47
2023-12-05T13:29:25.368Z,7.45
2023-12-05T13:34:26.099Z,7.5
2023-12-05T13:39:15.500Z,7.42
2023-12-05T13:44:26.149Z,7.45
2023-12-05T13:54:23.932Z,7.38
2023-12-05T13:58:58.877Z,7.27
2023-12-05T14:03:59.229Z,7.04
2023-12-05T14:08:58.727Z,6.93
2023-12-05T14:13:58.554Z,6.81
2023-12-05T14:18:59.104Z,6.74
2023-12-05T14:23:58.778Z,6.72
2023-12-05T14:28:59.841Z,6.78
2023-12-05T14:33:56.210Z,6.73
2023-12-05T14:38:59.965Z,6.71
2023-12-05T14:43:55.696Z,6.71
2023-12-05T14:48:55.471Z,6.6
2023-12-05T14:53:55.456Z,6.51
2023-12-05T14:58:55.876Z,6.25
2023-12-05T15:03:55.875Z,6
2023-12-05T15:08:57.914Z,5.82
2023-12-05T15:13:53.139Z,5.64
2023-12-05T15:18:52.994Z,5.49
2023-12-05T15:23:52.925Z,5.39
2023-12-05T15:28:53.320Z,5.25
2023-12-05T15:33:53.179Z,5.17
2023-12-05T15:38:53.322Z,5.11
2023-12-05T15:43:53.024Z,5.06
2023-12-05T15:48:53.110Z,4.98
2023-12-05T15:53:51.488Z,4.98
2023-12-05T15:58:50.966Z,4.98
2023-12-05T16:03:50.724Z,4.94
2023-12-05T16:08:51.072Z,4.94
2023-12-05T16:13:50.575Z,4.88
2023-12-05T16:18:50.412Z,4.88
2023-12-05T16:23:50.788Z,4.84
2023-12-05T16:28:51.190Z,4.84
2023-12-05T16:33:49.801Z,4.84
2023-12-05T16:38:50.164Z,4.82
2023-12-05T16:43:49.866Z,4.79
2023-12-05T16:48:50.029Z,4.78
2023-12-05T16:53:49.481Z,4.78
2023-12-05T16:58:49.404Z,4.77
2023-12-05T17:03:50.093Z,4.75
2023-12-05T17:08:49.740Z,4.71
2023-12-05T17:13:49.678Z,4.67
2023-12-05T17:18:47.271Z,4.64
2023-12-05T17:23:46.558Z,4.63
2023-12-05T17:28:46.516Z,4.6
2023-12-05T17:33:46.910Z,4.6
2023-12-05T17:38:46.618Z,4.6
2023-12-05T17:43:46.667Z,4.57
2023-12-05T17:48:47.066Z,4.51
2023-12-05T17:53:46.871Z,4.44
2023-12-05T17:58:48.196Z,4.41
2023-12-05T18:03:44.577Z,4.37
2023-12-05T18:08:44.463Z,4.37
2023-12-05T18:13:44.646Z,4.35
2023-12-05T18:18:44.483Z,4.32
2023-12-05T18:23:44.548Z,4.31
2023-12-05T18:28:45.005Z,4.31
2023-12-05T18:33:44.815Z,4.3
2023-12-05T18:38:45.627Z,4.31
2023-12-05T18:43:41.766Z,4.28
2023-12-05T18:48:41.475Z,4.29
2023-12-05T18:53:42.797Z,4.26
2023-12-05T18:58:41.789Z,4.23
2023-12-05T19:03:41.774Z,4.21
2023-12-05T19:08:42.016Z,4.21
2023-12-05T19:13:41.534Z,4.19
2023-12-05T19:18:41.680Z,4.17
2023-12-05T19:23:40.238Z,4.17
2023-12-05T19:28:42.445Z,4.19
2023-12-05T19:33:39.298Z,4.14
2023-12-05T19:38:39.378Z,4.14
2023-12-05T19:43:38.935Z,4.12
2023-12-05T19:48:39.586Z,4.11
2023-12-05T19:53:39.097Z,4.08
2023-12-05T19:58:39.045Z,4.07
2023-12-05T20:05:01.235Z,4.07
2023-12-05T20:10:00.919Z,4.03
2023-12-05T20:15:01.090Z,4.05
2023-12-05T20:20:00.567Z,4.04
2023-12-05T20:25:00.475Z,4.04
2023-12-05T20:30:00.807Z,4.05
2023-12-05T20:35:00.583Z,4.06
2023-12-05T20:40:00.576Z,4.06
2023-12-05T20:44:57.963Z,4.07
2023-12-05T20:49:57.476Z,4.06
2023-12-05T20:54:57.303Z,4.05
2023-12-05T20:59:18.810Z,4.09
2023-12-05T21:04:18.554Z,4.09
2023-12-05T21:09:23.621Z,4.1
2023-12-05T21:14:19.081Z,4.12
2023-12-05T21:19:18.939Z,4.12
2023-12-05T21:24:15.957Z,4.15
2023-12-05T21:29:15.429Z,4.15
2023-12-05T21:34:26.085Z,4.17
2023-12-05T21:39:15.570Z,4.14
2023-12-05T21:44:26.038Z,4.16
2023-12-05T21:49:26.461Z,4.13
2023-12-05T21:54:26.309Z,4.13
2023-12-05T21:59:04.083Z,4.15
2023-12-05T22:04:03.480Z,4.19
2023-12-05T22:09:03.126Z,4.19
2023-12-05T22:14:03.379Z,4.21
2023-12-05T22:19:02.851Z,4.21
2023-12-05T22:24:04.185Z,4.19
2023-12-05T22:29:02.845Z,4.23
2023-12-05T22:34:02.751Z,4.23
2023-12-05T22:39:02.638Z,4.23
2023-12-05T22:44:00.139Z,4.23
2023-12-05T22:48:59.693Z,4.25
2023-12-05T22:53:59.471Z,4.28
2023-12-05T22:58:43.890Z,4.3
2023-12-05T23:05:07.627Z,4.29
2023-12-05T23:10:07.222Z,4.28
2023-12-05T23:15:07.205Z,4.31
2023-12-05T23:20:04.735Z,4.31
2023-12-05T23:25:04.174Z,4.29
2023-12-05T23:30:03.998Z,4.3
2023-12-05T23:35:04.313Z,4.31
2023-12-05T23:40:03.956Z,4.34
2023-12-05T23:45:04.046Z,4.33
2023-12-05T23:50:04.458Z,4.35
2023-12-05T23:55:04.373Z,4.36
2023-12-05T23:59:28.605Z,4.35
